sensor_id;sensor_type;location;lat;lon;timestamp;P1;durP1;ratioP1;P2;durP2;ratioP2
13244;SDS011;6689;53.400;12.486;2022-08-19T00:01:26;32.72;;;29.77;;
13244;SDS011;6689;53.400;12.486;2022-08-19T00:03:54;29.63;;;27.00;;
13244;SDS011;6689;53.400;12.486;2022-08-19T00:06:23;29.67;;;26.83;;
13244;SDS011;6689;53.400;12.486;2022-08-19T00:08:51;28.60;;;26.10;;
13244;SDS011;6689;53.400;12.486;2022-08-19T00:11:19;31.35;;;28.52;;
13244;SDS011;6689;53.400;12.486;2022-08-19T00:13:48;31.58;;;28.23;;
13244;SDS011;6689;53.400;12.486;2022-08-19T00:16:16;30.05;;;27.35;;
13244;SDS011;6689;53.400;12.486;2022-08-19T00:18:44;32.70;;;29.58;;
13244;SDS011;6689;53.400;12.486;2022-08-19T00:21:12;32.25;;;29.25;;
13244;SDS011;6689;53.400;12.486;2022-08-19T00:23:40;29.83;;;27.23;;
13244;SDS011;6689;53.400;12.486;2022-08-19T00:26:09;34.00;;;30.83;;
13244;SDS011;6689;53.400;12.486;2022-08-19T00:28:39;31.23;;;28.42;;
13244;SDS011;6689;53.400;12.486;2022-08-19T00:31:07;32.38;;;28.85;;
13244;SDS011;6689;53.400;12.486;2022-08-19T00:33:34;33.15;;;30.05;;
13244;SDS011;6689;53.400;12.486;2022-08-19T00:36:04;32.63;;;29.65;;
13244;SDS011;6689;53.400;12.486;2022-08-19T00:38:33;34.78;;;31.60;;
13244;SDS011;6689;53.400;12.486;2022-08-19T00:41:01;32.05;;;29.17;;
13244;SDS011;6689;53.400;12.486;2022-08-19T00:43:31;31.80;;;28.88;;
13244;SDS011;6689;53.400;12.486;2022-08-19T00:46:00;32.83;;;29.90;;
13244;SDS011;6689;53.400;12.486;2022-08-19T00:48:29;32.28;;;29.23;;
13244;SDS011;6689;53.400;12.486;2022-08-19T00:50:58;32.63;;;29.63;;
13244;SDS011;6689;53.400;12.486;2022-08-19T00:53:27;33.35;;;29.98;;
13244;SDS011;6689;53.400;12.486;2022-08-19T00:55:57;33.08;;;30.02;;
13244;SDS011;6689;53.400;12.486;2022-08-19T00:58:32;30.85;;;28.15;;
13244;SDS011;6689;53.400;12.486;2022-08-19T01:01:04;32.05;;;29.02;;
13244;SDS011;6689;53.400;12.486;2022-08-19T01:03:32;32.30;;;29.40;;
13244;SDS011;6689;53.400;12.486;2022-08-19T01:05:59;29.83;;;26.92;;
13244;SDS011;6689;53.400;12.486;2022-08-19T01:08:28;31.20;;;28.05;;
13244;SDS011;6689;53.400;12.486;2022-08-19T01:10:55;31.42;;;28.65;;
13244;SDS011;6689;53.400;12.486;2022-08-19T01:13:25;31.65;;;28.70;;
13244;SDS011;6689;53.400;12.486;2022-08-19T01:15:56;30.52;;;27.73;;
13244;SDS011;6689;53.400;12.486;2022-08-19T01:18:28;30.98;;;28.17;;
13244;SDS011;6689;53.400;12.486;2022-08-19T01:20:58;31.20;;;28.30;;
13244;SDS011;6689;53.400;12.486;2022-08-19T01:23:30;32.03;;;28.75;;
13244;SDS011;6689;53.400;12.486;2022-08-19T01:26:09;31.55;;;28.75;;
13244;SDS011;6689;53.400;12.486;2022-08-19T01:28:38;31.90;;;28.73;;
13244;SDS011;6689;53.400;12.486;2022-08-19T01:31:07;32.38;;;29.58;;
13244;SDS011;6689;53.400;12.486;2022-08-19T01:33:37;33.92;;;30.83;;
13244;SDS011;6689;53.400;12.486;2022-08-19T01:36:06;35.33;;;31.98;;
13244;SDS011;6689;53.400;12.486;2022-08-19T01:38:38;35.65;;;32.35;;
13244;SDS011;6689;53.400;12.486;2022-08-19T01:41:07;33.42;;;30.15;;
13244;SDS011;6689;53.400;12.486;2022-08-19T01:43:35;32.10;;;29.15;;
13244;SDS011;6689;53.400;12.486;2022-08-19T01:46:03;35.70;;;32.33;;
13244;SDS011;6689;53.400;12.486;2022-08-19T01:48:33;33.65;;;30.38;;
13244;SDS011;6689;53.400;12.486;2022-08-19T01:51:01;35.42;;;31.95;;
13244;SDS011;6689;53.400;12.486;2022-08-19T01:53:29;35.45;;;32.15;;
13244;SDS011;6689;53.400;12.486;2022-08-19T01:55:59;33.47;;;30.23;;
13244;SDS011;6689;53.400;12.486;2022-08-19T01:58:27;34.25;;;30.95;;
13244;SDS011;6689;53.400;12.486;2022-08-19T02:00:58;36.70;;;32.78;;
13244;SDS011;6689;53.400;12.486;2022-08-19T02:03:25;37.78;;;34.17;;
13244;SDS011;6689;53.400;12.486;2022-08-19T02:05:54;35.60;;;32.15;;
13244;SDS011;6689;53.400;12.486;2022-08-19T02:08:22;33.63;;;30.50;;
13244;SDS011;6689;53.400;12.486;2022-08-19T02:10:49;34.95;;;31.75;;
13244;SDS011;6689;53.400;12.486;2022-08-19T02:13:20;34.08;;;30.98;;
13244;SDS011;6689;53.400;12.486;2022-08-19T02:15:49;33.40;;;30.17;;
13244;SDS011;6689;53.400;12.486;2022-08-19T02:18:17;33.25;;;30.27;;
13244;SDS011;6689;53.400;12.486;2022-08-19T02:20:44;33.37;;;29.97;;
13244;SDS011;6689;53.400;12.486;2022-08-19T02:23:15;34.60;;;31.17;;
13244;SDS011;6689;53.400;12.486;2022-08-19T02:25:45;34.55;;;31.27;;
13244;SDS011;6689;53.400;12.486;2022-08-19T02:28:14;33.53;;;30.35;;
13244;SDS011;6689;53.400;12.486;2022-08-19T02:30:43;34.75;;;31.50;;
13244;SDS011;6689;53.400;12.486;2022-08-19T02:33:10;32.67;;;29.67;;
13244;SDS011;6689;53.400;12.486;2022-08-19T02:35:40;34.50;;;30.98;;
13244;SDS011;6689;53.400;12.486;2022-08-19T02:38:09;33.45;;;30.25;;
13244;SDS011;6689;53.400;12.486;2022-08-19T02:40:53;32.90;;;29.70;;
13244;SDS011;6689;53.400;12.486;2022-08-19T02:43:21;32.58;;;29.75;;
13244;SDS011;6689;53.400;12.486;2022-08-19T02:45:51;31.67;;;28.98;;
13244;SDS011;6689;53.400;12.486;2022-08-19T02:48:20;30.20;;;27.20;;
13244;SDS011;6689;53.400;12.486;2022-08-19T02:50:50;33.33;;;30.23;;
13244;SDS011;6689;53.400;12.486;2022-08-19T02:53:20;31.20;;;28.33;;
13244;SDS011;6689;53.400;12.486;2022-08-19T02:55:49;30.45;;;27.50;;
13244;SDS011;6689;53.400;12.486;2022-08-19T02:58:17;30.15;;;27.35;;
13244;SDS011;6689;53.400;12.486;2022-08-19T03:00:47;29.48;;;26.55;;
13244;SDS011;6689;53.400;12.486;2022-08-19T03:03:18;31.70;;;28.70;;
13244;SDS011;6689;53.400;12.486;2022-08-19T03:05:45;31.30;;;28.10;;
13244;SDS011;6689;53.400;12.486;2022-08-19T03:08:15;30.35;;;27.45;;
13244;SDS011;6689;53.400;12.486;2022-08-19T03:10:43;30.23;;;27.45;;
13244;SDS011;6689;53.400;12.486;2022-08-19T03:13:12;30.15;;;27.45;;
13244;SDS011;6689;53.400;12.486;2022-08-19T03:15:45;31.23;;;28.48;;
13244;SDS011;6689;53.400;12.486;2022-08-19T03:18:16;31.13;;;28.27;;
13244;SDS011;6689;53.400;12.486;2022-08-19T03:20:44;30.73;;;27.85;;
13244;SDS011;6689;53.400;12.486;2022-08-19T03:23:14;29.95;;;27.25;;
13244;SDS011;6689;53.400;12.486;2022-08-19T03:25:44;28.65;;;26.02;;
13244;SDS011;6689;53.400;12.486;2022-08-19T03:28:15;27.67;;;24.83;;
13244;SDS011;6689;53.400;12.486;2022-08-19T03:30:53;26.23;;;23.95;;
13244;SDS011;6689;53.400;12.486;2022-08-19T03:33:25;25.73;;;23.52;;
13244;SDS011;6689;53.400;12.486;2022-08-19T03:36:02;27.40;;;24.73;;
13244;SDS011;6689;53.400;12.486;2022-08-19T03:38:32;24.83;;;22.60;;
13244;SDS011;6689;53.400;12.486;2022-08-19T03:41:04;26.25;;;23.65;;
13244;SDS011;6689;53.400;12.486;2022-08-19T03:43:34;27.20;;;24.70;;
13244;SDS011;6689;53.400;12.486;2022-08-19T03:46:04;24.48;;;22.17;;
13244;SDS011;6689;53.400;12.486;2022-08-19T03:48:36;26.05;;;23.42;;
13244;SDS011;6689;53.400;12.486;2022-08-19T03:51:05;24.42;;;22.33;;
13244;SDS011;6689;53.400;12.486;2022-08-19T03:53:33;24.63;;;22.42;;
13244;SDS011;6689;53.400;12.486;2022-08-19T03:56:01;24.85;;;22.70;;
13244;SDS011;6689;53.400;12.486;2022-08-19T03:58:29;25.75;;;23.52;;
13244;SDS011;6689;53.400;12.486;2022-08-19T04:00:56;25.95;;;23.63;;
13244;SDS011;6689;53.400;12.486;2022-08-19T04:03:25;25.10;;;22.85;;
13244;SDS011;6689;53.400;12.486;2022-08-19T04:05:55;24.05;;;21.80;;
13244;SDS011;6689;53.400;12.486;2022-08-19T04:08:24;25.17;;;22.95;;
13244;SDS011;6689;53.400;12.486;2022-08-19T04:10:51;24.67;;;22.40;;
13244;SDS011;6689;53.400;12.486;2022-08-19T04:13:19;26.77;;;24.27;;
13244;SDS011;6689;53.400;12.486;2022-08-19T04:15:46;25.30;;;23.00;;
13244;SDS011;6689;53.400;12.486;2022-08-19T04:18:14;25.05;;;22.77;;
13244;SDS011;6689;53.400;12.486;2022-08-19T04:20:42;26.33;;;23.73;;
13244;SDS011;6689;53.400;12.486;2022-08-19T04:23:13;27.50;;;24.98;;
13244;SDS011;6689;53.400;12.486;2022-08-19T04:25:42;26.08;;;23.88;;
13244;SDS011;6689;53.400;12.486;2022-08-19T04:28:11;27.83;;;25.30;;
13244;SDS011;6689;53.400;12.486;2022-08-19T04:30:40;26.30;;;23.80;;
13244;SDS011;6689;53.400;12.486;2022-08-19T04:33:09;25.33;;;23.00;;
13244;SDS011;6689;53.400;12.486;2022-08-19T04:35:38;26.10;;;23.80;;
13244;SDS011;6689;53.400;12.486;2022-08-19T04:38:07;26.85;;;24.25;;
13244;SDS011;6689;53.400;12.486;2022-08-19T04:40:41;27.52;;;24.83;;
13244;SDS011;6689;53.400;12.486;2022-08-19T04:43:26;27.70;;;24.85;;
13244;SDS011;6689;53.400;12.486;2022-08-19T04:45:54;26.50;;;24.30;;
13244;SDS011;6689;53.400;12.486;2022-08-19T04:48:22;26.48;;;23.95;;
13244;SDS011;6689;53.400;12.486;2022-08-19T04:50:51;27.95;;;25.35;;
13244;SDS011;6689;53.400;12.486;2022-08-19T04:53:22;26.67;;;24.33;;
13244;SDS011;6689;53.400;12.486;2022-08-19T04:55:56;29.50;;;26.60;;
13244;SDS011;6689;53.400;12.486;2022-08-19T04:58:27;29.60;;;26.83;;
13244;SDS011;6689;53.400;12.486;2022-08-19T05:00:55;29.67;;;26.73;;
13244;SDS011;6689;53.400;12.486;2022-08-19T05:03:25;29.55;;;26.73;;
13244;SDS011;6689;53.400;12.486;2022-08-19T05:05:52;31.52;;;28.33;;
13244;SDS011;6689;53.400;12.486;2022-08-19T05:08:20;31.15;;;28.33;;
13244;SDS011;6689;53.400;12.486;2022-08-19T05:10:48;35.35;;;32.22;;
13244;SDS011;6689;53.400;12.486;2022-08-19T05:13:18;34.63;;;31.23;;
13244;SDS011;6689;53.400;12.486;2022-08-19T05:15:52;34.97;;;31.33;;
13244;SDS011;6689;53.400;12.486;2022-08-19T05:18:21;36.63;;;32.97;;
13244;SDS011;6689;53.400;12.486;2022-08-19T05:21:06;37.65;;;33.75;;
13244;SDS011;6689;53.400;12.486;2022-08-19T05:23:51;39.17;;;35.22;;
13244;SDS011;6689;53.400;12.486;2022-08-19T05:26:19;38.85;;;34.78;;
13244;SDS011;6689;53.400;12.486;2022-08-19T05:28:49;42.05;;;37.90;;
13244;SDS011;6689;53.400;12.486;2022-08-19T05:31:18;47.58;;;39.22;;
13244;SDS011;6689;53.400;12.486;2022-08-19T05:33:48;42.35;;;38.20;;
13244;SDS011;6689;53.400;12.486;2022-08-19T05:36:17;43.05;;;38.72;;
13244;SDS011;6689;53.400;12.486;2022-08-19T05:38:48;44.17;;;39.53;;
13244;SDS011;6689;53.400;12.486;2022-08-19T05:41:18;45.80;;;41.03;;
13244;SDS011;6689;53.400;12.486;2022-08-19T05:46:40;45.13;;;40.72;;
13244;SDS011;6689;53.400;12.486;2022-08-19T05:49:12;49.47;;;44.30;;
13244;SDS011;6689;53.400;12.486;2022-08-19T05:51:41;49.50;;;44.00;;
13244;SDS011;6689;53.400;12.486;2022-08-19T05:54:16;52.47;;;47.17;;
13244;SDS011;6689;53.400;12.486;2022-08-19T05:56:58;51.25;;;45.72;;
13244;SDS011;6689;53.400;12.486;2022-08-19T05:59:37;51.92;;;45.83;;
13244;SDS011;6689;53.400;12.486;2022-08-19T06:02:13;54.15;;;47.50;;
13244;SDS011;6689;53.400;12.486;2022-08-19T06:04:56;55.72;;;47.92;;
13244;SDS011;6689;53.400;12.486;2022-08-19T06:07:32;53.97;;;48.08;;
13244;SDS011;6689;53.400;12.486;2022-08-19T06:10:01;50.70;;;45.42;;
13244;SDS011;6689;53.400;12.486;2022-08-19T06:12:28;49.03;;;43.88;;
13244;SDS011;6689;53.400;12.486;2022-08-19T06:15:07;52.38;;;46.85;;
13244;SDS011;6689;53.400;12.486;2022-08-19T06:17:35;52.30;;;46.42;;
13244;SDS011;6689;53.400;12.486;2022-08-19T06:20:04;55.42;;;48.65;;
13244;SDS011;6689;53.400;12.486;2022-08-19T06:22:44;50.17;;;45.22;;
13244;SDS011;6689;53.400;12.486;2022-08-19T06:25:26;47.17;;;42.35;;
13244;SDS011;6689;53.400;12.486;2022-08-19T06:27:55;45.97;;;41.47;;
13244;SDS011;6689;53.400;12.486;2022-08-19T06:30:36;45.13;;;40.60;;
13244;SDS011;6689;53.400;12.486;2022-08-19T06:33:16;48.80;;;43.83;;
13244;SDS011;6689;53.400;12.486;2022-08-19T06:35:57;46.88;;;41.72;;
13244;SDS011;6689;53.400;12.486;2022-08-19T06:38:25;46.35;;;41.55;;
13244;SDS011;6689;53.400;12.486;2022-08-19T06:40:59;47.20;;;42.40;;
13244;SDS011;6689;53.400;12.486;2022-08-19T06:43:31;47.40;;;42.47;;
13244;SDS011;6689;53.400;12.486;2022-08-19T06:46:17;43.95;;;39.55;;
13244;SDS011;6689;53.400;12.486;2022-08-19T06:48:58;44.33;;;39.88;;
13244;SDS011;6689;53.400;12.486;2022-08-19T06:51:26;44.85;;;40.33;;
13244;SDS011;6689;53.400;12.486;2022-08-19T06:53:54;39.70;;;35.47;;
13244;SDS011;6689;53.400;12.486;2022-08-19T06:56:23;42.45;;;37.85;;
13244;SDS011;6689;53.400;12.486;2022-08-19T06:59:06;40.35;;;36.13;;
13244;SDS011;6689;53.400;12.486;2022-08-19T07:07:43;39.45;;;35.38;;
13244;SDS011;6689;53.400;12.486;2022-08-19T07:10:17;40.08;;;36.03;;
13244;SDS011;6689;53.400;12.486;2022-08-19T07:15:32;40.13;;;36.05;;
13244;SDS011;6689;53.400;12.486;2022-08-19T07:18:02;38.75;;;34.60;;
13244;SDS011;6689;53.400;12.486;2022-08-19T07:20:43;41.25;;;37.03;;
13244;SDS011;6689;53.400;12.486;2022-08-19T07:23:12;40.17;;;36.13;;
13244;SDS011;6689;53.400;12.486;2022-08-19T07:25:43;42.90;;;38.38;;
13244;SDS011;6689;53.400;12.486;2022-08-19T07:28:11;42.35;;;38.05;;
13244;SDS011;6689;53.400;12.486;2022-08-19T07:30:43;42.65;;;38.22;;
13244;SDS011;6689;53.400;12.486;2022-08-19T07:33:13;42.17;;;37.78;;
13244;SDS011;6689;53.400;12.486;2022-08-19T07:35:43;41.38;;;36.88;;
13244;SDS011;6689;53.400;12.486;2022-08-19T07:41:24;42.75;;;38.28;;
13244;SDS011;6689;53.400;12.486;2022-08-19T07:44:02;43.92;;;39.50;;
13244;SDS011;6689;53.400;12.486;2022-08-19T07:46:33;46.35;;;41.40;;
13244;SDS011;6689;53.400;12.486;2022-08-19T07:49:02;41.28;;;37.08;;
13244;SDS011;6689;53.400;12.486;2022-08-19T07:51:32;44.00;;;39.35;;
13244;SDS011;6689;53.400;12.486;2022-08-19T07:54:07;43.40;;;38.90;;
13244;SDS011;6689;53.400;12.486;2022-08-19T07:56:47;44.53;;;39.85;;
13244;SDS011;6689;53.400;12.486;2022-08-19T07:59:18;42.28;;;38.00;;
13244;SDS011;6689;53.400;12.486;2022-08-19T08:01:48;40.42;;;36.17;;
13244;SDS011;6689;53.400;12.486;2022-08-19T08:04:17;37.63;;;33.92;;
13244;SDS011;6689;53.400;12.486;2022-08-19T08:07:02;38.90;;;34.88;;
13244;SDS011;6689;53.400;12.486;2022-08-19T08:09:47;39.92;;;35.95;;
13244;SDS011;6689;53.400;12.486;2022-08-19T08:12:27;36.92;;;33.40;;
13244;SDS011;6689;53.400;12.486;2022-08-19T08:14:57;36.45;;;32.85;;
13244;SDS011;6689;53.400;12.486;2022-08-19T08:17:28;38.55;;;34.80;;
13244;SDS011;6689;53.400;12.486;2022-08-19T08:19:57;34.72;;;31.58;;
13244;SDS011;6689;53.400;12.486;2022-08-19T08:22:42;33.88;;;30.42;;
13244;SDS011;6689;53.400;12.486;2022-08-19T08:25:27;32.38;;;29.23;;
13244;SDS011;6689;53.400;12.486;2022-08-19T08:28:07;34.40;;;31.00;;
13244;SDS011;6689;53.400;12.486;2022-08-19T08:30:48;33.13;;;29.92;;
13244;SDS011;6689;53.400;12.486;2022-08-19T08:33:18;32.15;;;29.17;;
13244;SDS011;6689;53.400;12.486;2022-08-19T08:35:47;32.17;;;29.17;;
13244;SDS011;6689;53.400;12.486;2022-08-19T08:38:18;29.83;;;27.00;;
13244;SDS011;6689;53.400;12.486;2022-08-19T08:40:48;30.23;;;27.45;;
13244;SDS011;6689;53.400;12.486;2022-08-19T08:43:23;30.88;;;28.05;;
13244;SDS011;6689;53.400;12.486;2022-08-19T08:45:59;31.00;;;27.90;;
13244;SDS011;6689;53.400;12.486;2022-08-19T08:48:44;27.90;;;25.40;;
13244;SDS011;6689;53.400;12.486;2022-08-19T08:51:29;31.30;;;28.30;;
13244;SDS011;6689;53.400;12.486;2022-08-19T08:54:04;29.85;;;26.83;;
13244;SDS011;6689;53.400;12.486;2022-08-19T08:56:33;30.05;;;27.25;;
13244;SDS011;6689;53.400;12.486;2022-08-19T08:59:04;31.05;;;27.92;;
13244;SDS011;6689;53.400;12.486;2022-08-19T09:01:35;29.77;;;26.88;;
13244;SDS011;6689;53.400;12.486;2022-08-19T09:04:03;31.13;;;28.02;;
13244;SDS011;6689;53.400;12.486;2022-08-19T09:06:36;31.02;;;27.92;;
13244;SDS011;6689;53.400;12.486;2022-08-19T09:09:12;30.23;;;27.20;;
13244;SDS011;6689;53.400;12.486;2022-08-19T09:11:47;30.13;;;27.27;;
13244;SDS011;6689;53.400;12.486;2022-08-19T09:14:39;29.73;;;26.65;;
13244;SDS011;6689;53.400;12.486;2022-08-19T09:17:13;30.23;;;27.00;;
13244;SDS011;6689;53.400;12.486;2022-08-19T09:19:47;30.90;;;27.90;;
13244;SDS011;6689;53.400;12.486;2022-08-19T09:22:19;28.67;;;26.05;;
13244;SDS011;6689;53.400;12.486;2022-08-19T09:24:48;28.90;;;26.00;;
13244;SDS011;6689;53.400;12.486;2022-08-19T09:27:19;29.58;;;26.58;;
13244;SDS011;6689;53.400;12.486;2022-08-19T09:29:58;31.40;;;28.30;;
13244;SDS011;6689;53.400;12.486;2022-08-19T09:32:29;29.65;;;26.83;;
13244;SDS011;6689;53.400;12.486;2022-08-19T09:35:07;28.75;;;25.80;;
13244;SDS011;6689;53.400;12.486;2022-08-19T09:37:48;30.23;;;27.42;;
13244;SDS011;6689;53.400;12.486;2022-08-19T09:40:20;28.60;;;26.00;;
13244;SDS011;6689;53.400;12.486;2022-08-19T09:42:49;27.98;;;25.27;;
13244;SDS011;6689;53.400;12.486;2022-08-19T09:45:27;30.10;;;27.10;;
13244;SDS011;6689;53.400;12.486;2022-08-19T09:48:08;30.92;;;27.70;;
13244;SDS011;6689;53.400;12.486;2022-08-19T09:50:39;28.63;;;25.75;;
13244;SDS011;6689;53.400;12.486;2022-08-19T09:53:20;30.58;;;27.65;;
13244;SDS011;6689;53.400;12.486;2022-08-19T09:56:01;28.58;;;25.73;;
13244;SDS011;6689;53.400;12.486;2022-08-19T09:58:30;30.88;;;27.88;;
13244;SDS011;6689;53.400;12.486;2022-08-19T10:01:05;30.60;;;27.70;;
13244;SDS011;6689;53.400;12.486;2022-08-19T10:03:34;28.45;;;25.95;;
13244;SDS011;6689;53.400;12.486;2022-08-19T10:06:05;30.83;;;27.85;;
13244;SDS011;6689;53.400;12.486;2022-08-19T10:08:35;32.15;;;28.90;;
13244;SDS011;6689;53.400;12.486;2022-08-19T10:11:04;31.30;;;28.27;;
13244;SDS011;6689;53.400;12.486;2022-08-19T10:13:34;28.48;;;25.77;;
13244;SDS011;6689;53.400;12.486;2022-08-19T10:16:05;30.67;;;27.75;;
13244;SDS011;6689;53.400;12.486;2022-08-19T10:18:34;31.73;;;28.27;;
13244;SDS011;6689;53.400;12.486;2022-08-19T10:21:10;33.85;;;30.52;;
13244;SDS011;6689;53.400;12.486;2022-08-19T10:23:39;32.42;;;29.23;;
13244;SDS011;6689;53.400;12.486;2022-08-19T10:26:10;32.13;;;29.02;;
13244;SDS011;6689;53.400;12.486;2022-08-19T10:28:38;30.80;;;27.95;;
13244;SDS011;6689;53.400;12.486;2022-08-19T10:31:25;31.73;;;28.92;;
13244;SDS011;6689;53.400;12.486;2022-08-19T10:33:55;30.02;;;27.05;;
13244;SDS011;6689;53.400;12.486;2022-08-19T10:36:26;30.60;;;27.60;;
13244;SDS011;6689;53.400;12.486;2022-08-19T10:39:09;30.92;;;27.83;;
13244;SDS011;6689;53.400;12.486;2022-08-19T10:41:39;29.63;;;26.98;;
13244;SDS011;6689;53.400;12.486;2022-08-19T10:44:09;32.22;;;29.13;;
13244;SDS011;6689;53.400;12.486;2022-08-19T10:46:49;29.35;;;26.55;;
13244;SDS011;6689;53.400;12.486;2022-08-19T10:49:18;29.65;;;26.88;;
13244;SDS011;6689;53.400;12.486;2022-08-19T10:51:49;32.70;;;29.58;;
13244;SDS011;6689;53.400;12.486;2022-08-19T10:54:34;27.70;;;25.05;;
13244;SDS011;6689;53.400;12.486;2022-08-19T10:57:18;30.08;;;27.20;;
13244;SDS011;6689;53.400;12.486;2022-08-19T10:59:54;30.75;;;28.02;;
13244;SDS011;6689;53.400;12.486;2022-08-19T11:02:40;29.20;;;26.45;;
13244;SDS011;6689;53.400;12.486;2022-08-19T11:05:09;28.15;;;25.58;;
13244;SDS011;6689;53.400;12.486;2022-08-19T11:07:44;26.63;;;24.17;;
13244;SDS011;6689;53.400;12.486;2022-08-19T11:10:16;29.08;;;26.38;;
13244;SDS011;6689;53.400;12.486;2022-08-19T11:12:44;27.10;;;24.52;;
13244;SDS011;6689;53.400;12.486;2022-08-19T11:15:20;27.85;;;25.08;;
13244;SDS011;6689;53.400;12.486;2022-08-19T11:18:05;28.00;;;25.33;;
13244;SDS011;6689;53.400;12.486;2022-08-19T11:20:35;29.67;;;26.83;;
13244;SDS011;6689;53.400;12.486;2022-08-19T11:23:06;30.27;;;27.38;;
13244;SDS011;6689;53.400;12.486;2022-08-19T11:25:34;30.10;;;27.25;;
13244;SDS011;6689;53.400;12.486;2022-08-19T11:28:04;30.92;;;27.88;;
13244;SDS011;6689;53.400;12.486;2022-08-19T11:30:35;30.50;;;27.58;;
13244;SDS011;6689;53.400;12.486;2022-08-19T11:33:19;31.42;;;28.23;;
13244;SDS011;6689;53.400;12.486;2022-08-19T11:35:54;29.67;;;26.83;;
13244;SDS011;6689;53.400;12.486;2022-08-19T11:38:24;29.75;;;26.95;;
13244;SDS011;6689;53.400;12.486;2022-08-19T11:41:06;28.58;;;25.88;;
13244;SDS011;6689;53.400;12.486;2022-08-19T11:43:34;33.97;;;30.38;;
13244;SDS011;6689;53.400;12.486;2022-08-19T11:46:05;28.08;;;25.20;;
13244;SDS011;6689;53.400;12.486;2022-08-19T11:48:35;29.40;;;26.65;;
13244;SDS011;6689;53.400;12.486;2022-08-19T11:51:06;31.73;;;28.45;;
13244;SDS011;6689;53.400;12.486;2022-08-19T11:53:34;30.55;;;27.65;;
13244;SDS011;6689;53.400;12.486;2022-08-19T11:56:06;30.13;;;27.15;;
13244;SDS011;6689;53.400;12.486;2022-08-19T11:58:37;31.52;;;28.33;;
13244;SDS011;6689;53.400;12.486;2022-08-19T12:01:07;30.23;;;27.42;;
13244;SDS011;6689;53.400;12.486;2022-08-19T12:03:41;28.55;;;25.95;;
13244;SDS011;6689;53.400;12.486;2022-08-19T12:06:12;32.10;;;28.92;;
13244;SDS011;6689;53.400;12.486;2022-08-19T12:08:43;35.38;;;31.83;;
13244;SDS011;6689;53.400;12.486;2022-08-19T12:11:25;31.85;;;28.52;;
13244;SDS011;6689;53.400;12.486;2022-08-19T12:14:06;34.22;;;30.63;;
13244;SDS011;6689;53.400;12.486;2022-08-19T12:16:36;33.45;;;30.02;;
13244;SDS011;6689;53.400;12.486;2022-08-19T12:22:10;34.28;;;30.58;;
13244;SDS011;6689;53.400;12.486;2022-08-19T12:24:41;35.63;;;31.50;;
13244;SDS011;6689;53.400;12.486;2022-08-19T12:27:17;36.90;;;31.85;;
13244;SDS011;6689;53.400;12.486;2022-08-19T12:29:45;33.33;;;29.83;;
13244;SDS011;6689;53.400;12.486;2022-08-19T12:32:16;32.35;;;29.05;;
13244;SDS011;6689;53.400;12.486;2022-08-19T12:34:55;31.02;;;27.42;;
13244;SDS011;6689;53.400;12.486;2022-08-19T12:37:30;30.45;;;27.45;;
13244;SDS011;6689;53.400;12.486;2022-08-19T12:40:01;30.58;;;27.60;;
13244;SDS011;6689;53.400;12.486;2022-08-19T12:42:29;31.17;;;28.08;;
13244;SDS011;6689;53.400;12.486;2022-08-19T12:44:56;33.78;;;30.38;;
13244;SDS011;6689;53.400;12.486;2022-08-19T12:47:37;31.50;;;28.38;;
13244;SDS011;6689;53.400;12.486;2022-08-19T12:50:16;31.30;;;28.10;;
13244;SDS011;6689;53.400;12.486;2022-08-19T12:52:57;34.20;;;30.50;;
13244;SDS011;6689;53.400;12.486;2022-08-19T12:55:38;31.58;;;28.30;;
13244;SDS011;6689;53.400;12.486;2022-08-19T12:58:05;30.98;;;28.05;;
13244;SDS011;6689;53.400;12.486;2022-08-19T13:00:46;29.58;;;26.65;;
13244;SDS011;6689;53.400;12.486;2022-08-19T13:03:27;31.77;;;28.45;;
13244;SDS011;6689;53.400;12.486;2022-08-19T13:06:09;28.80;;;26.05;;
13244;SDS011;6689;53.400;12.486;2022-08-19T13:08:37;30.88;;;27.88;;
13244;SDS011;6689;53.400;12.486;2022-08-19T13:11:09;28.15;;;25.35;;
13244;SDS011;6689;53.400;12.486;2022-08-19T13:13:51;27.55;;;24.80;;
13244;SDS011;6689;53.400;12.486;2022-08-19T13:16:20;27.83;;;25.02;;
13244;SDS011;6689;53.400;12.486;2022-08-19T13:18:52;25.85;;;23.25;;
13244;SDS011;6689;53.400;12.486;2022-08-19T13:21:25;23.98;;;21.77;;
13244;SDS011;6689;53.400;12.486;2022-08-19T13:24:01;25.88;;;23.38;;
13244;SDS011;6689;53.400;12.486;2022-08-19T13:26:31;25.25;;;22.85;;
13244;SDS011;6689;53.400;12.486;2022-08-19T13:29:12;23.70;;;21.23;;
13244;SDS011;6689;53.400;12.486;2022-08-19T13:31:56;22.17;;;20.00;;
13244;SDS011;6689;53.400;12.486;2022-08-19T13:34:41;20.77;;;18.85;;
13244;SDS011;6689;53.400;12.486;2022-08-19T13:37:17;22.25;;;20.10;;
13244;SDS011;6689;53.400;12.486;2022-08-19T13:39:58;22.85;;;20.75;;
13244;SDS011;6689;53.400;12.486;2022-08-19T13:42:32;22.25;;;20.05;;
13244;SDS011;6689;53.400;12.486;2022-08-19T13:45:07;21.50;;;19.55;;
13244;SDS011;6689;53.400;12.486;2022-08-19T13:47:36;25.10;;;21.05;;
13244;SDS011;6689;53.400;12.486;2022-08-19T13:50:08;23.58;;;21.38;;
13244;SDS011;6689;53.400;12.486;2022-08-19T13:55:37;24.50;;;22.10;;
13244;SDS011;6689;53.400;12.486;2022-08-19T13:58:18;24.88;;;22.45;;
13244;SDS011;6689;53.400;12.486;2022-08-19T14:00:46;25.45;;;22.60;;
13244;SDS011;6689;53.400;12.486;2022-08-19T14:03:22;22.88;;;20.58;;
13244;SDS011;6689;53.400;12.486;2022-08-19T14:06:02;22.65;;;20.27;;
13244;SDS011;6689;53.400;12.486;2022-08-19T14:08:42;23.92;;;21.52;;
13244;SDS011;6689;53.400;12.486;2022-08-19T14:11:23;23.23;;;20.92;;
13244;SDS011;6689;53.400;12.486;2022-08-19T14:13:54;23.48;;;21.17;;
13244;SDS011;6689;53.400;12.486;2022-08-19T14:16:26;24.73;;;22.23;;
13244;SDS011;6689;53.400;12.486;2022-08-19T14:19:01;24.25;;;22.02;;
13244;SDS011;6689;53.400;12.486;2022-08-19T14:21:42;23.70;;;21.35;;
13244;SDS011;6689;53.400;12.486;2022-08-19T14:24:26;21.65;;;19.48;;
13244;SDS011;6689;53.400;12.486;2022-08-19T14:27:01;21.20;;;19.35;;
13244;SDS011;6689;53.400;12.486;2022-08-19T14:29:32;21.42;;;19.33;;
13244;SDS011;6689;53.400;12.486;2022-08-19T14:32:02;21.60;;;19.63;;
13244;SDS011;6689;53.400;12.486;2022-08-19T14:34:37;21.02;;;19.13;;
13244;SDS011;6689;53.400;12.486;2022-08-19T14:37:11;20.23;;;18.35;;
13244;SDS011;6689;53.400;12.486;2022-08-19T14:39:47;17.20;;;15.70;;
13244;SDS011;6689;53.400;12.486;2022-08-19T14:42:16;19.73;;;17.98;;
13244;SDS011;6689;53.400;12.486;2022-08-19T14:44:51;19.70;;;17.73;;
13244;SDS011;6689;53.400;12.486;2022-08-19T14:47:32;19.30;;;17.42;;
13244;SDS011;6689;53.400;12.486;2022-08-19T14:50:13;19.45;;;16.50;;
13244;SDS011;6689;53.400;12.486;2022-08-19T14:52:57;20.27;;;18.17;;
13244;SDS011;6689;53.400;12.486;2022-08-19T14:55:42;20.65;;;18.75;;
13244;SDS011;6689;53.400;12.486;2022-08-19T14:58:11;20.98;;;18.98;;
13244;SDS011;6689;53.400;12.486;2022-08-19T15:00:39;20.58;;;18.67;;
13244;SDS011;6689;53.400;12.486;2022-08-19T15:03:07;21.02;;;19.05;;
13244;SDS011;6689;53.400;12.486;2022-08-19T15:05:38;19.00;;;17.27;;
13244;SDS011;6689;53.400;12.486;2022-08-19T15:08:13;20.55;;;18.65;;
13244;SDS011;6689;53.400;12.486;2022-08-19T15:10:57;19.38;;;17.40;;
13244;SDS011;6689;53.400;12.486;2022-08-19T15:13:27;20.25;;;18.35;;